createdAt,value
2023-11-25T00:01:06.558Z,1.00
2023-11-25T00:03:34.781Z,1.10
2023-11-25T00:06:02.863Z,0.90
2023-11-25T00:08:32.712Z,0.90
2023-11-25T00:11:00.967Z,0.90
2023-11-25T00:13:29.389Z,0.90
2023-11-25T00:15:57.489Z,0.90
2023-11-25T00:18:25.629Z,0.90
2023-11-25T00:20:53.653Z,0.90
2023-11-25T00:23:22.762Z,0.90
2023-11-25T00:25:54.408Z,0.90
2023-11-25T00:28:22.434Z,0.80
2023-11-25T00:30:50.612Z,0.90
2023-11-25T00:33:19.648Z,1.00
2023-11-25T00:35:49.243Z,1.00
2023-11-25T00:38:17.256Z,1.00
2023-11-25T00:40:45.648Z,1.00
2023-11-25T00:43:15.159Z,1.00
2023-11-25T00:45:43.488Z,1.00
2023-11-25T00:48:11.694Z,1.00
2023-11-25T00:50:40.119Z,1.00
2023-11-25T00:53:08.998Z,1.00
2023-11-25T00:55:37.213Z,1.10
2023-11-25T00:58:07.417Z,1.10
2023-11-25T01:00:37.115Z,1.00
2023-11-25T01:03:05.592Z,1.00
2023-11-25T01:05:33.817Z,1.00
2023-11-25T01:08:02.071Z,1.00
2023-11-25T01:10:30.375Z,1.00
2023-11-25T01:13:01.677Z,0.90
2023-11-25T01:15:29.482Z,0.90
2023-11-25T01:17:59.686Z,0.90
2023-11-25T01:20:28.271Z,1.00
2023-11-25T01:22:56.468Z,1.00
2023-11-25T01:25:24.811Z,1.00
2023-11-25T01:27:55.218Z,1.10
2023-11-25T01:30:23.343Z,1.00
2023-11-25T01:32:51.571Z,1.10
2023-11-25T01:35:21.119Z,1.00
2023-11-25T01:37:50.482Z,0.90
2023-11-25T01:40:18.641Z,0.90
2023-11-25T01:42:47.349Z,0.90
2023-11-25T01:45:15.525Z,0.90
2023-11-25T01:47:44.042Z,0.80
2023-11-25T01:50:12.714Z,0.80
2023-11-25T01:52:42.241Z,0.70
2023-11-25T01:55:11.204Z,0.70
2023-11-25T01:57:39.263Z,0.60
2023-11-25T02:00:09.550Z,0.70
2023-11-25T02:02:38.416Z,0.70
2023-11-25T02:05:07.302Z,0.70
2023-11-25T02:07:35.356Z,0.70
2023-11-25T02:10:06.473Z,0.80
2023-11-25T02:12:36.067Z,0.80
2023-11-25T02:15:05.517Z,0.80
2023-11-25T02:17:33.586Z,0.80
2023-11-25T02:20:04.361Z,0.90
2023-11-25T02:22:35.659Z,0.90
2023-11-25T02:25:05.420Z,0.90
2023-11-25T02:27:35.900Z,0.90
2023-11-25T02:30:07.276Z,0.90
2023-11-25T02:32:35.955Z,0.90
2023-11-25T02:35:04.225Z,0.90
2023-11-25T02:37:32.623Z,0.80
2023-11-25T02:40:00.988Z,0.90
2023-11-25T02:42:35.779Z,0.90
2023-11-25T02:45:04.349Z,0.90
2023-11-25T02:47:32.595Z,0.90
2023-11-25T02:50:00.837Z,0.90
2023-11-25T02:52:29.317Z,0.80
2023-11-25T02:54:57.183Z,0.80
2023-11-25T02:57:26.249Z,0.80
2023-11-25T02:59:59.344Z,0.80
2023-11-25T03:02:28.634Z,0.80
2023-11-25T03:04:56.816Z,0.80
2023-11-25T03:07:25.202Z,0.70
2023-11-25T03:09:53.207Z,0.50
2023-11-25T03:12:21.656Z,0.50
2023-11-25T03:14:49.932Z,0.60
2023-11-25T03:17:19.375Z,0.40
2023-11-25T03:19:47.615Z,0.40
2023-11-25T03:22:15.675Z,0.30
2023-11-25T03:24:44.860Z,0.30
2023-11-25T03:27:14.578Z,0.20
2023-11-25T03:29:42.525Z,-0.30
2023-11-25T03:32:10.800Z,-0.50
2023-11-25T03:34:40.224Z,-0.50
2023-11-25T03:37:09.726Z,-0.40
2023-11-25T03:39:38.178Z,-0.40
2023-11-25T03:42:06.795Z,-0.40
2023-11-25T03:44:35.244Z,-0.30
2023-11-25T03:47:04.684Z,-0.40
2023-11-25T03:49:35.936Z,-0.30
2023-11-25T03:52:07.053Z,-0.30
2023-11-25T03:54:35.109Z,-0.30
2023-11-25T03:57:02.912Z,-0.30
2023-11-25T03:59:31.147Z,-0.30
2023-11-25T04:01:59.339Z,-0.30
2023-11-25T04:04:27.367Z,-0.30
2023-11-25T04:06:55.337Z,-0.50
2023-11-25T04:09:25.209Z,-0.50
2023-11-25T04:11:53.088Z,-0.50
2023-11-25T04:14:21.083Z,-0.50
2023-11-25T04:16:49.023Z,-0.50
2023-11-25T04:19:17.250Z,-0.50
2023-11-25T04:21:47.231Z,-0.50
2023-11-25T04:24:15.128Z,-0.40
2023-11-25T04:26:44.557Z,-0.40
2023-11-25T04:29:12.803Z,-0.30
2023-11-25T04:31:40.776Z,-0.30
2023-11-25T04:34:08.638Z,-0.30
2023-11-25T04:36:36.513Z,-0.20
2023-11-25T04:39:05.604Z,-0.10
2023-11-25T04:41:33.439Z,-0.10
2023-11-25T04:44:02.662Z,-0.20
2023-11-25T04:46:31.373Z,-0.20
2023-11-25T04:48:59.268Z,-0.20
2023-11-25T04:51:27.080Z,-0.20
2023-11-25T04:53:54.870Z,-0.20
2023-11-25T04:56:23.198Z,-0.20
2023-11-25T04:58:51.147Z,-0.20
2023-11-25T05:01:20.530Z,-0.20
2023-11-25T05:03:49.695Z,-0.20
2023-11-25T05:06:17.686Z,-0.20
2023-11-25T05:08:48.042Z,-0.10
2023-11-25T05:11:15.999Z,-0.20
2023-11-25T05:13:44.301Z,-0.20
2023-11-25T05:16:12.409Z,-0.30
2023-11-25T05:18:45.475Z,-0.30
2023-11-25T05:21:13.311Z,-0.20
2023-11-25T05:23:41.547Z,-0.30
2023-11-25T05:26:10.231Z,-0.20
2023-11-25T05:28:38.228Z,-0.20
2023-11-25T05:31:06.291Z,-0.20
2023-11-25T05:33:34.415Z,-0.20
2023-11-25T05:36:03.776Z,-0.20
2023-11-25T05:38:31.626Z,-0.20
2023-11-25T05:40:59.668Z,-0.20
2023-11-25T05:43:27.633Z,-0.10
2023-11-25T05:45:55.579Z,-0.20
2023-11-25T05:48:23.879Z,0.00
2023-11-25T05:50:51.714Z,0.00
2023-11-25T05:53:20.977Z,0.20
2023-11-25T05:55:48.872Z,0.10
2023-11-25T05:58:16.826Z,0.00
2023-11-25T06:00:44.710Z,0.00
2023-11-25T06:03:13.113Z,0.00
2023-11-25T06:05:40.975Z,-0.10
2023-11-25T06:08:08.899Z,-0.10
2023-11-25T06:10:38.111Z,-0.10
2023-11-25T06:13:06.057Z,0.00
2023-11-25T06:15:33.873Z,-0.20
2023-11-25T06:18:01.776Z,-0.10
2023-11-25T06:20:30.456Z,-0.10
2023-11-25T06:22:58.401Z,-0.10
2023-11-25T06:25:27.493Z,-0.20
2023-11-25T06:27:57.001Z,-0.20
2023-11-25T06:30:25.667Z,-0.20
2023-11-25T06:32:53.619Z,-0.10
2023-11-25T06:35:24.348Z,-0.20
2023-11-25T06:37:52.990Z,-0.20
2023-11-25T06:40:21.527Z,-0.10
2023-11-25T06:42:49.605Z,-0.20
2023-11-25T06:45:19.394Z,-0.20
2023-11-25T06:47:50.917Z,-0.20
2023-11-25T06:50:19.592Z,-0.30
2023-11-25T06:52:47.627Z,-0.20
2023-11-25T06:55:15.861Z,-0.20
2023-11-25T06:57:42.944Z,-0.30
2023-11-25T07:00:12.465Z,-0.30
2023-11-25T07:02:42.319Z,-0.30
2023-11-25T07:05:10.528Z,-0.30
2023-11-25T07:07:38.914Z,-0.30
2023-11-25T07:10:10.864Z,-0.20
2023-11-25T07:12:39.109Z,-0.30
2023-11-25T07:15:07.944Z,-0.40
2023-11-25T07:17:36.167Z,-0.40
2023-11-25T07:20:06.824Z,-0.40
2023-11-25T07:22:34.821Z,-0.40
2023-11-25T07:25:03.325Z,-0.40
2023-11-25T07:27:31.152Z,-0.40
2023-11-25T07:30:02.225Z,-0.40
2023-11-25T07:32:30.245Z,-0.40
2023-11-25T07:34:58.165Z,-0.30
2023-11-25T07:37:27.889Z,-0.40
2023-11-25T07:39:55.824Z,-0.40
2023-11-25T07:42:24.400Z,-0.20
2023-11-25T07:44:52.654Z,-0.20
2023-11-25T07:47:20.732Z,-0.20
2023-11-25T07:49:48.751Z,-0.20
2023-11-25T07:52:16.888Z,-0.20
2023-11-25T07:54:46.476Z,-0.10
2023-11-25T07:57:14.321Z,0.00
2023-11-25T07:59:42.236Z,0.00
2023-11-25T08:02:10.617Z,0.00
2023-11-25T08:04:38.842Z,0.00
2023-11-25T08:07:07.263Z,0.00
2023-11-25T08:09:35.097Z,0.00
2023-11-25T08:12:04.916Z,-0.10
2023-11-25T08:14:32.893Z,-0.10
2023-11-25T08:17:00.728Z,0.00
2023-11-25T08:19:28.836Z,0.00
2023-11-25T08:21:56.662Z,0.00
2023-11-25T08:24:24.538Z,-0.10
2023-11-25T08:26:52.450Z,0.10
2023-11-25T08:29:21.852Z,0.10
2023-11-25T08:31:49.779Z,0.30
2023-11-25T08:34:17.777Z,1.00
2023-11-25T08:36:53.737Z,0.90
2023-11-25T08:39:26.571Z,0.60
2023-11-25T08:41:55.067Z,0.60
2023-11-25T08:44:24.369Z,0.40
2023-11-25T08:46:52.734Z,0.40
2023-11-25T08:49:23.143Z,0.50
2023-11-25T08:51:52.433Z,0.30
2023-11-25T08:54:20.881Z,0.50
2023-11-25T08:56:49.847Z,0.70
2023-11-25T08:59:21.192Z,0.70
2023-11-25T09:01:52.594Z,0.70
2023-11-25T09:04:21.662Z,0.70
2023-11-25T09:06:49.597Z,0.70
2023-11-25T09:09:18.914Z,0.50
2023-11-25T09:11:46.868Z,0.50
2023-11-25T09:14:17.416Z,0.50
2023-11-25T09:16:45.431Z,1.30
2023-11-25T09:19:14.776Z,1.30
2023-11-25T09:21:44.774Z,1.30
2023-11-25T09:24:12.588Z,1.20
2023-11-25T09:26:40.439Z,1.20
2023-11-25T09:29:08.327Z,1.10
2023-11-25T09:31:36.231Z,1.10
2023-11-25T09:34:04.514Z,1.10
2023-11-25T09:36:34.245Z,1.20
2023-11-25T09:39:04.820Z,1.10
2023-11-25T09:41:33.176Z,1.00
2023-11-25T09:44:05.232Z,1.10
2023-11-25T09:46:33.210Z,0.90
2023-11-25T09:49:01.264Z,1.00
2023-11-25T09:51:33.957Z,1.00
2023-11-25T09:54:05.296Z,0.90
2023-11-25T09:56:33.191Z,0.80
2023-11-25T09:59:01.047Z,0.90
2023-11-25T10:01:29.259Z,0.80
2023-11-25T10:03:57.287Z,0.80
2023-11-25T10:06:26.587Z,0.70
2023-11-25T10:08:54.494Z,0.70
2023-11-25T10:11:24.303Z,0.60
2023-11-25T10:13:52.508Z,0.60
2023-11-25T10:16:27.403Z,0.50
2023-11-25T10:18:55.327Z,0.60
2023-11-25T10:21:23.186Z,0.70
2023-11-25T10:23:51.399Z,1.10
2023-11-25T10:26:19.624Z,1.30
2023-11-25T10:28:49.115Z,1.20
2023-11-25T10:31:17.177Z,1.10
2023-11-25T10:33:45.148Z,1.00
2023-11-25T10:36:13.617Z,0.80
2023-11-25T10:38:43.213Z,0.80
2023-11-25T10:41:11.596Z,0.80
2023-11-25T10:43:39.525Z,1.20
2023-11-25T10:46:09.490Z,0.90
2023-11-25T10:48:38.665Z,0.80
2023-11-25T10:51:07.025Z,0.70
2023-11-25T10:53:35.458Z,0.60
2023-11-25T10:56:05.083Z,0.60
2023-11-25T10:58:33.292Z,0.60
2023-11-25T11:01:01.322Z,0.60
2023-11-25T11:03:55.787Z,0.50
2023-11-25T11:06:25.589Z,0.40
2023-11-25T11:08:53.804Z,0.50
2023-11-25T11:11:25.824Z,0.40
2023-11-25T11:13:57.065Z,0.20
2023-11-25T11:16:28.878Z,0.20
2023-11-25T11:18:58.890Z,0.20
2023-11-25T11:21:28.350Z,0.30
2023-11-25T11:23:56.232Z,0.40
2023-11-25T11:26:29.499Z,0.40
2023-11-25T11:29:05.125Z,0.30
2023-11-25T11:31:58.367Z,0.30
2023-11-25T11:34:28.764Z,0.30
2023-11-25T11:36:57.115Z,0.10
2023-11-25T11:39:35.053Z,0.10
2023-11-25T11:42:26.415Z,0.20
2023-11-25T11:44:59.744Z,0.40
2023-11-25T11:47:28.473Z,0.30
2023-11-25T11:49:57.864Z,0.40
2023-11-25T11:52:25.850Z,0.30
2023-11-25T11:54:53.772Z,0.00
2023-11-25T11:57:22.477Z,-0.10
2023-11-25T12:00:00.919Z,-0.10
2023-11-25T12:02:32.475Z,0.00
2023-11-25T12:05:02.800Z,-0.10
2023-11-25T12:07:31.530Z,-0.10
2023-11-25T12:09:59.638Z,0.00
2023-11-25T12:12:27.766Z,0.00
2023-11-25T12:14:55.819Z,0.10
2023-11-25T12:17:23.971Z,-0.10
2023-11-25T12:19:53.933Z,-0.10
2023-11-25T12:22:23.401Z,-0.20
2023-11-25T12:24:51.382Z,-0.20
2023-11-25T12:27:20.067Z,-0.10
2023-11-25T12:29:50.558Z,0.10
2023-11-25T12:32:18.797Z,0.20
2023-11-25T12:34:47.206Z,0.10
2023-11-25T12:37:15.413Z,-0.10
2023-11-25T12:39:44.803Z,-0.20
2023-11-25T12:42:13.258Z,-0.10
2023-11-25T12:44:51.230Z,-0.10
2023-11-25T12:47:19.536Z,-0.10
2023-11-25T12:49:48.655Z,-0.10
2023-11-25T12:52:24.349Z,-0.10
2023-11-25T12:54:54.090Z,0.10
2023-11-25T12:57:26.610Z,0.00
2023-11-25T12:59:56.623Z,0.00
2023-11-25T13:02:26.517Z,0.00
2023-11-25T13:04:55.645Z,-0.10
2023-11-25T13:07:32.682Z,0.00
2023-11-25T13:10:02.056Z,0.10
2023-11-25T13:12:30.177Z,0.20
2023-11-25T13:14:58.252Z,0.30
2023-11-25T13:17:26.322Z,0.40
2023-11-25T13:19:54.643Z,0.50
2023-11-25T13:22:22.583Z,0.50
2023-11-25T13:24:50.590Z,0.80
2023-11-25T13:27:19.862Z,0.70
2023-11-25T13:29:47.698Z,0.70
2023-11-25T13:32:17.451Z,0.60
2023-11-25T13:34:45.569Z,0.60
2023-11-25T13:37:13.704Z,0.70
2023-11-25T13:39:41.909Z,0.60
2023-11-25T13:42:09.753Z,0.50
2023-11-25T13:44:40.500Z,0.50
2023-11-25T13:47:08.551Z,0.50
2023-11-25T13:49:36.727Z,0.50
2023-11-25T13:52:05.009Z,0.60
2023-11-25T13:54:32.897Z,0.60
2023-11-25T13:57:01.631Z,0.50
2023-11-25T13:59:29.627Z,0.60
2023-11-25T14:02:00.677Z,0.60
2023-11-25T14:04:28.690Z,0.60
2023-11-25T14:07:00.513Z,0.60
2023-11-25T14:09:28.475Z,0.60
2023-11-25T14:11:57.338Z,0.60
2023-11-25T14:14:26.375Z,0.60
2023-11-25T14:16:56.549Z,0.60
2023-11-25T14:19:27.041Z,0.60
2023-11-25T14:21:54.973Z,0.60
2023-11-25T14:24:23.648Z,0.60
2023-11-25T14:26:51.666Z,0.70
2023-11-25T14:29:19.910Z,0.70
2023-11-25T14:31:48.267Z,0.70
2023-11-25T14:34:16.822Z,0.70
2023-11-25T14:36:46.195Z,0.60
2023-11-25T14:39:19.706Z,0.60
2023-11-25T14:41:49.257Z,0.60
2023-11-25T14:44:17.580Z,0.60
2023-11-25T14:46:48.585Z,0.50
2023-11-25T14:49:16.890Z,0.60
2023-11-25T14:51:46.738Z,0.50
2023-11-25T14:54:15.199Z,0.50
2023-11-25T14:56:45.173Z,0.40
2023-11-25T14:59:16.959Z,0.60
2023-11-25T15:01:45.113Z,0.60
2023-11-25T15:04:15.227Z,0.40
2023-11-25T15:06:43.437Z,0.40
2023-11-25T15:09:13.128Z,0.50
2023-11-25T15:11:41.909Z,0.40
2023-11-25T15:14:10.133Z,0.40
2023-11-25T15:16:38.746Z,0.40
2023-11-25T15:19:07.716Z,0.40
2023-11-25T15:21:36.230Z,0.50
2023-11-25T15:24:04.870Z,0.50
2023-11-25T15:26:38.069Z,0.50
2023-11-25T15:29:07.234Z,0.40
2023-11-25T15:31:35.485Z,0.50
2023-11-25T15:34:03.517Z,0.50
2023-11-25T15:36:31.888Z,0.50
2023-11-25T15:38:59.834Z,0.50
2023-11-25T15:41:28.349Z,0.50
2023-11-25T15:43:57.778Z,0.60
2023-11-25T15:46:25.799Z,0.60
2023-11-25T15:48:53.600Z,0.60
2023-11-25T15:51:22.899Z,0.60
2023-11-25T15:53:51.355Z,0.60
2023-11-25T15:56:19.488Z,0.60
2023-11-25T15:58:47.868Z,0.70
2023-11-25T16:01:17.633Z,0.60
2023-11-25T16:03:45.538Z,0.60
2023-11-25T16:06:16.527Z,0.60
2023-11-25T16:08:44.639Z,0.60
2023-11-25T16:11:12.526Z,0.60
2023-11-25T16:13:40.478Z,0.60
2023-11-25T16:16:10.305Z,0.60
2023-11-25T16:18:40.696Z,0.60
2023-11-25T16:21:08.907Z,0.60
2023-11-25T16:23:39.528Z,0.60
2023-11-25T16:26:09.041Z,0.50
2023-11-25T16:28:37.221Z,0.50
2023-11-25T16:31:07.265Z,0.60
2023-11-25T16:33:39.493Z,0.60
2023-11-25T16:36:09.076Z,0.50
2023-11-25T16:38:36.976Z,0.50
2023-11-25T16:41:08.188Z,0.60
2023-11-25T16:43:37.432Z,0.60
2023-11-25T16:46:06.204Z,0.60
2023-11-25T16:48:43.789Z,0.60
2023-11-25T16:51:20.963Z,0.60
2023-11-25T16:53:48.787Z,0.60
2023-11-25T16:56:16.739Z,0.60
2023-11-25T16:58:44.618Z,0.60
2023-11-25T17:01:13.148Z,0.50
2023-11-25T17:03:41.104Z,0.50
2023-11-25T17:06:10.599Z,0.40
2023-11-25T17:08:40.332Z,0.50
2023-11-25T17:11:08.841Z,0.40
2023-11-25T17:13:36.825Z,0.40
2023-11-25T17:16:05.263Z,0.40
2023-11-25T17:18:33.544Z,0.40
2023-11-25T17:21:02.439Z,0.40
2023-11-25T17:23:30.404Z,0.40
2023-11-25T17:26:00.334Z,0.40
2023-11-25T17:28:28.560Z,0.40
2023-11-25T17:30:56.712Z,0.30
2023-11-25T17:33:24.706Z,0.30
2023-11-25T17:35:52.675Z,0.40
2023-11-25T17:38:20.570Z,0.30
2023-11-25T17:40:49.507Z,0.30
2023-11-25T17:43:19.888Z,0.40
2023-11-25T17:45:48.050Z,0.50
2023-11-25T17:48:15.979Z,0.40
2023-11-25T17:50:43.998Z,0.30
2023-11-25T17:53:14.657Z,0.30
2023-11-25T17:55:43.284Z,0.40
2023-11-25T17:58:11.406Z,0.40
2023-11-25T18:00:44.242Z,0.30
2023-11-25T18:03:12.540Z,0.30
2023-11-25T18:05:40.478Z,0.30
2023-11-25T18:08:08.634Z,0.30
2023-11-25T18:10:36.774Z,0.30
2023-11-25T18:13:04.642Z,0.40
2023-11-25T18:15:32.679Z,0.30
2023-11-25T18:18:01.916Z,0.30
2023-11-25T18:20:29.779Z,0.20
2023-11-25T18:22:57.588Z,0.20
2023-11-25T18:25:25.518Z,0.20
2023-11-25T18:27:54.278Z,0.10
2023-11-25T18:30:22.615Z,0.20
2023-11-25T18:32:50.477Z,0.10
2023-11-25T18:35:19.740Z,0.30
2023-11-25T18:37:48.457Z,0.20
2023-11-25T18:40:17.491Z,0.20
2023-11-25T18:42:45.608Z,0.20
2023-11-25T18:45:13.693Z,0.30
2023-11-25T18:47:41.890Z,0.20
2023-11-25T18:50:10.670Z,0.20
2023-11-25T18:52:41.066Z,0.30
2023-11-25T18:55:10.961Z,0.20
2023-11-25T18:57:38.860Z,0.10
2023-11-25T19:00:07.899Z,0.20
2023-11-25T19:02:35.858Z,0.20
2023-11-25T19:05:06.357Z,0.30
2023-11-25T19:07:34.204Z,0.30
2023-11-25T19:10:03.732Z,0.20
2023-11-25T19:12:32.014Z,0.20
2023-11-25T19:15:00.423Z,0.20
2023-11-25T19:17:28.456Z,0.30
2023-11-25T19:19:56.349Z,0.30
2023-11-25T19:22:25.139Z,0.30
2023-11-25T19:24:53.050Z,0.30
2023-11-25T19:27:22.829Z,0.30
2023-11-25T19:29:50.697Z,0.30
2023-11-25T19:32:18.593Z,0.40
2023-11-25T19:34:46.462Z,0.30
2023-11-25T19:37:14.395Z,0.40
2023-11-25T19:39:43.084Z,0.40
2023-11-25T19:42:10.944Z,0.40
2023-11-25T19:44:40.178Z,0.40
2023-11-25T19:47:08.723Z,0.40
2023-11-25T19:49:36.679Z,0.40
2023-11-25T19:52:04.930Z,0.40
2023-11-25T19:54:33.004Z,0.40
2023-11-25T19:57:01.038Z,0.30
2023-11-25T19:59:29.973Z,0.30
2023-11-25T20:01:59.423Z,0.30
2023-11-25T20:04:29.527Z,0.30
2023-11-25T20:06:59.983Z,0.30
2023-11-25T20:09:28.064Z,0.40
2023-11-25T20:11:59.015Z,0.40
2023-11-25T20:14:28.522Z,0.20
2023-11-25T20:16:58.204Z,0.20
2023-11-25T20:19:29.030Z,0.30
2023-11-25T20:21:57.555Z,0.30
2023-11-25T20:24:25.844Z,0.30
2023-11-25T20:26:54.721Z,0.30
2023-11-25T20:29:23.018Z,0.40
2023-11-25T20:31:50.945Z,0.40
2023-11-25T20:34:18.800Z,0.50
2023-11-25T20:36:48.116Z,0.50
2023-11-25T20:39:16.090Z,0.50
2023-11-25T20:41:44.119Z,0.50
2023-11-25T20:44:12.360Z,0.50
2023-11-25T20:46:40.910Z,0.60
2023-11-25T20:49:08.868Z,0.50
2023-11-25T20:51:36.893Z,0.50
2023-11-25T20:54:07.042Z,0.60
2023-11-25T20:56:34.987Z,0.60
2023-11-25T20:59:02.959Z,0.60
2023-11-25T21:01:31.607Z,0.60
2023-11-25T21:03:59.689Z,0.50
2023-11-25T21:06:27.921Z,0.50
2023-11-25T21:08:55.801Z,0.60
2023-11-25T21:11:25.062Z,0.60
2023-11-25T21:13:53.587Z,0.60
2023-11-25T21:16:21.593Z,0.60
2023-11-25T21:18:49.935Z,0.60
2023-11-25T21:21:18.700Z,0.60
2023-11-25T21:23:46.602Z,0.60
2023-11-25T21:26:15.157Z,0.60
2023-11-25T21:28:44.606Z,0.60
2023-11-25T21:31:13.097Z,0.60
2023-11-25T21:33:41.093Z,0.70
2023-11-25T21:36:09.172Z,0.70
2023-11-25T21:38:37.010Z,0.70
2023-11-25T21:41:06.576Z,0.70
2023-11-25T21:43:34.688Z,0.70
2023-11-25T21:46:06.979Z,0.60
2023-11-25T21:48:36.600Z,0.60
2023-11-25T21:51:05.188Z,0.50
2023-11-25T21:53:33.866Z,0.40
2023-11-25T21:56:02.209Z,0.50
2023-11-25T21:58:30.157Z,0.50
2023-11-25T22:00:58.084Z,0.40
2023-11-25T22:03:29.051Z,0.40
2023-11-25T22:05:56.972Z,0.50
2023-11-25T22:08:25.098Z,0.50
2023-11-25T22:10:53.067Z,0.60
2023-11-25T22:13:21.721Z,0.60
2023-11-25T22:15:50.067Z,0.60
2023-11-25T22:18:18.134Z,0.60
2023-11-25T22:20:47.504Z,0.70
2023-11-25T22:23:17.974Z,0.70
2023-11-25T22:25:55.832Z,0.70
2023-11-25T22:28:24.071Z,0.80
2023-11-25T22:30:53.832Z,0.70
2023-11-25T22:33:22.346Z,0.70
2023-11-25T22:35:59.226Z,0.70
2023-11-25T22:38:27.774Z,0.70
2023-11-25T22:40:57.133Z,0.80
2023-11-25T22:43:25.654Z,0.80
2023-11-25T22:45:54.462Z,0.80
2023-11-25T22:48:22.934Z,0.80
2023-11-25T22:50:52.660Z,0.80
2023-11-25T22:53:21.063Z,0.80
2023-11-25T22:55:49.237Z,0.80
2023-11-25T22:58:17.382Z,0.70
2023-11-25T23:00:53.025Z,0.80
2023-11-25T23:03:21.883Z,0.70
2023-11-25T23:05:50.535Z,0.70
2023-11-25T23:08:21.066Z,0.70
2023-11-25T23:10:49.357Z,0.70
2023-11-25T23:13:17.494Z,0.70
2023-11-25T23:15:55.000Z,0.70
2023-11-25T23:18:24.780Z,0.70
2023-11-25T23:20:53.073Z,0.70
2023-11-25T23:23:23.199Z,0.80
2023-11-25T23:25:51.489Z,0.70
2023-11-25T23:28:20.269Z,0.70
2023-11-25T23:30:48.516Z,0.70
2023-11-25T23:33:29.618Z,0.70
2023-11-25T23:35:58.319Z,0.60
2023-11-25T23:38:28.337Z,0.70
2023-11-25T23:41:02.775Z,0.70
2023-11-25T23:43:31.461Z,0.70
2023-11-25T23:45:59.835Z,0.80
2023-11-25T23:48:28.540Z,0.80
2023-11-25T23:50:57.070Z,0.80
2023-11-25T23:53:25.383Z,0.90
2023-11-25T23:55:55.209Z,0.90
2023-11-25T23:58:24.601Z,0.90
